Terminal Aerodrome Forecast
Issued by NWS

Home | Current Version | Previous Version | Text Only | Print | Product List | Glossary Off
Versions: 1 2 3 4 5 6 7 8 9 10 11 12 13

000
FTUS45 KGGW 161900 AAA
TAFSDY
TAF AMD
KSDY 161900Z 1619/1718 02008KT P6SM -RA BKN008 OVC025
     FM170000 VRB06KT P6SM VCSH OVC035
     FM170300 30004KT P6SM OVC030
     FM170700 VRB04KT P6SM SCT060=

USA.gov is the U.S. government's official web portal to all federal, state and local government web resources and services.